createdAt,value
2022-11-27T00:01:33.031Z,98478.50
2022-11-27T00:04:01.401Z,98478.75
2022-11-27T00:06:30.226Z,98482.38
2022-11-27T00:09:03.842Z,98487.31
2022-11-27T00:11:32.424Z,98483.28
2022-11-27T00:14:00.867Z,98479.56
2022-11-27T00:16:29.443Z,98491.09
2022-11-27T00:18:57.833Z,98490.38
2022-11-27T00:21:34.363Z,98491.06
2022-11-27T00:24:04.136Z,98495.91
2022-11-27T00:26:37.559Z,98488.66
2022-11-27T00:29:07.041Z,98484.34
2022-11-27T00:31:37.785Z,98488.38
2022-11-27T00:34:07.966Z,98487.97
2022-11-27T00:36:36.473Z,98484.31
2022-11-27T00:39:04.783Z,98484.78
2022-11-27T00:41:33.109Z,98484.88
2022-11-27T00:44:01.425Z,98489.88
2022-11-27T00:46:33.155Z,98492.94
2022-11-27T00:49:03.092Z,98490.50
2022-11-27T00:51:31.586Z,98499.59
2022-11-27T00:54:00.369Z,98492.06
2022-11-27T00:56:30.701Z,98496.34
2022-11-27T00:58:59.127Z,98503.38
2022-11-27T01:01:30.071Z,98494.81
2022-11-27T01:03:59.081Z,98493.34
2022-11-27T01:06:27.779Z,98487.44
2022-11-27T01:08:56.276Z,98486.88
2022-11-27T01:11:31.668Z,98481.53
2022-11-27T01:14:01.731Z,98492.41
2022-11-27T01:16:31.111Z,98490.22
2022-11-27T01:19:00.852Z,98478.50
2022-11-27T01:21:32.542Z,98484.91
2022-11-27T01:24:01.355Z,98477.56
2022-11-27T01:26:33.332Z,98483.84
2022-11-27T01:29:01.794Z,98473.16
2022-11-27T01:31:32.263Z,98477.97
2022-11-27T01:34:02.916Z,98480.09
2022-11-27T01:36:31.491Z,98476.63
2022-11-27T01:39:00.034Z,98470.81
2022-11-27T01:41:33.842Z,98469.34
2022-11-27T01:44:25.015Z,98477.94
2022-11-27T01:47:16.682Z,98471.50
2022-11-27T01:49:47.037Z,98467.16
2022-11-27T01:52:16.271Z,98471.31
2022-11-27T01:54:55.457Z,98462.38
2022-11-27T01:57:29.671Z,98469.38
2022-11-27T01:59:59.360Z,98455.53
2022-11-27T02:02:27.735Z,98458.44
2022-11-27T02:04:59.915Z,98466.25
2022-11-27T02:07:28.256Z,98459.78
2022-11-27T02:09:57.102Z,98456.66
2022-11-27T02:12:26.209Z,98466.91
2022-11-27T02:15:17.407Z,98456.56
2022-11-27T02:18:10.315Z,98459.13
2022-11-27T02:20:52.913Z,98466.88
2022-11-27T02:24:03.041Z,98469.31
2022-11-27T02:26:55.938Z,98462.56
2022-11-27T02:29:24.384Z,98462.28
2022-11-27T02:31:58.533Z,98466.38
2022-11-27T02:34:32.380Z,98462.22
2022-11-27T02:37:03.920Z,98466.19
2022-11-27T02:39:39.154Z,98472.69
2022-11-27T02:42:14.445Z,98454.94
2022-11-27T02:44:50.979Z,98464.53
2022-11-27T02:47:19.292Z,98465.69
2022-11-27T02:49:47.567Z,98466.84
2022-11-27T02:52:15.867Z,98467.94
2022-11-27T02:54:44.247Z,98472.88
2022-11-27T02:57:12.534Z,98475.44
2022-11-27T02:59:40.917Z,98469.53
2022-11-27T03:02:12.167Z,98469.31
2022-11-27T03:04:52.637Z,98466.28
2022-11-27T03:07:53.190Z,98468.97
2022-11-27T03:10:27.634Z,98469.81
2022-11-27T03:12:55.917Z,98466.19
2022-11-27T03:15:24.223Z,98474.56
2022-11-27T03:18:01.992Z,98477.47
2022-11-27T03:20:32.253Z,98481.34
2022-11-27T03:23:00.542Z,98485.66
2022-11-27T03:25:28.861Z,98481.63
2022-11-27T03:28:04.500Z,98483.34
2022-11-27T03:30:32.812Z,98487.22
2022-11-27T03:33:01.506Z,98488.25
2022-11-27T03:35:30.084Z,98489.56
2022-11-27T03:37:59.534Z,98490.72
2022-11-27T03:40:36.220Z,98486.13
2022-11-27T03:43:14.980Z,98476.47
2022-11-27T03:45:57.506Z,98482.91
2022-11-27T03:48:31.854Z,98481.63
2022-11-27T03:51:05.450Z,98479.72
2022-11-27T03:54:04.777Z,98482.50
2022-11-27T03:56:39.134Z,98481.41
2022-11-27T03:59:11.985Z,98475.53
2022-11-27T04:01:40.516Z,98479.31
2022-11-27T04:04:09.105Z,98472.16
2022-11-27T04:06:37.476Z,98477.34
2022-11-27T04:09:06.319Z,98475.38
2022-11-27T04:11:34.572Z,98466.19
2022-11-27T04:14:03.778Z,98469.13
2022-11-27T04:16:32.609Z,98469.78
2022-11-27T04:19:00.931Z,98464.09
2022-11-27T04:21:29.837Z,98462.22
2022-11-27T04:23:58.220Z,98467.38
2022-11-27T04:26:27.179Z,98467.50
2022-11-27T04:28:55.620Z,98470.72
2022-11-27T04:31:23.916Z,98472.47
2022-11-27T04:33:52.283Z,98472.25
2022-11-27T04:36:20.569Z,98468.13
2022-11-27T04:38:48.864Z,98463.28
2022-11-27T04:41:17.155Z,98457.53
2022-11-27T04:43:45.994Z,98465.28
2022-11-27T04:46:14.322Z,98466.81
2022-11-27T04:48:42.775Z,98469.41
2022-11-27T04:51:11.644Z,98467.75
2022-11-27T04:53:39.941Z,98472.31
2022-11-27T04:56:08.316Z,98467.59
2022-11-27T04:58:37.234Z,98467.75
2022-11-27T05:01:08.500Z,98469.75
2022-11-27T05:03:36.864Z,98474.47
2022-11-27T05:06:05.434Z,98480.69
2022-11-27T05:08:33.956Z,98492.34
2022-11-27T05:11:03.493Z,98491.44
2022-11-27T05:13:32.024Z,98485.88
2022-11-27T05:16:00.521Z,98482.91
2022-11-27T05:18:28.838Z,98488.41
2022-11-27T05:21:01.889Z,98495.69
2022-11-27T05:23:30.331Z,98496.59
2022-11-27T05:25:58.663Z,98503.72
2022-11-27T05:28:27.267Z,98491.06
2022-11-27T05:30:55.755Z,98491.59
2022-11-27T05:33:24.040Z,98496.50
2022-11-27T05:35:52.361Z,98496.88
2022-11-27T05:38:21.219Z,98497.31
2022-11-27T05:40:49.601Z,98500.44
2022-11-27T05:43:17.928Z,98504.03
2022-11-27T05:45:46.261Z,98501.13
2022-11-27T05:48:14.609Z,98494.00
2022-11-27T05:50:42.895Z,98502.03
2022-11-27T05:53:11.261Z,98504.47
2022-11-27T05:55:39.611Z,98512.50
2022-11-27T05:58:07.940Z,98511.03
2022-11-27T06:00:36.225Z,98505.38
2022-11-27T06:03:04.760Z,98504.06
2022-11-27T06:05:33.201Z,98508.59
2022-11-27T06:08:01.663Z,98507.13
2022-11-27T06:10:29.953Z,98500.19
2022-11-27T06:12:58.364Z,98510.50
2022-11-27T06:15:26.703Z,98508.72
2022-11-27T06:17:55.062Z,98513.00
2022-11-27T06:20:24.162Z,98505.59
2022-11-27T06:22:53.297Z,98503.16
2022-11-27T06:25:21.698Z,98509.84
2022-11-27T06:27:50.994Z,98509.38
2022-11-27T06:30:19.454Z,98514.44
2022-11-27T06:32:47.811Z,98503.34
2022-11-27T06:35:17.113Z,98517.41
2022-11-27T06:37:45.451Z,98512.31
2022-11-27T06:40:14.061Z,98511.28
2022-11-27T06:42:43.757Z,98510.16
2022-11-27T06:45:12.191Z,98513.50
2022-11-27T06:47:42.261Z,98520.06
2022-11-27T06:50:10.932Z,98516.69
2022-11-27T06:52:40.788Z,98516.09
2022-11-27T06:55:09.655Z,98511.47
2022-11-27T06:57:38.200Z,98520.28
2022-11-27T07:00:07.338Z,98521.75
2022-11-27T07:02:35.806Z,98521.13
2022-11-27T07:05:04.443Z,98510.91
2022-11-27T07:07:33.397Z,98514.66
2022-11-27T07:10:01.883Z,98514.78
2022-11-27T07:12:30.264Z,98518.50
2022-11-27T07:15:02.869Z,98515.69
2022-11-27T07:17:32.433Z,98508.16
2022-11-27T07:20:00.782Z,98514.97
2022-11-27T07:22:29.150Z,98523.06
2022-11-27T07:24:57.594Z,98522.19
2022-11-27T07:27:26.981Z,98518.22
2022-11-27T07:29:55.435Z,98517.13
2022-11-27T07:32:23.884Z,98507.16
2022-11-27T07:34:52.951Z,98518.72
2022-11-27T07:37:21.295Z,98517.50
2022-11-27T07:40:04.021Z,98518.63
2022-11-27T07:42:39.644Z,98507.66
2022-11-27T07:45:08.884Z,98511.13
2022-11-27T07:47:37.628Z,98511.88
2022-11-27T07:50:08.611Z,98513.16
2022-11-27T07:52:41.556Z,98521.00
2022-11-27T07:55:11.066Z,98518.13
2022-11-27T07:57:39.651Z,98512.66
2022-11-27T08:00:08.669Z,98506.72
2022-11-27T08:02:37.149Z,98514.44
2022-11-27T08:05:12.142Z,98517.16
2022-11-27T08:07:41.950Z,98517.50
2022-11-27T08:10:10.551Z,98508.84
2022-11-27T08:12:40.196Z,98512.53
2022-11-27T08:15:09.149Z,98507.53
2022-11-27T08:17:37.621Z,98503.66
2022-11-27T08:20:07.248Z,98508.88
2022-11-27T08:22:37.450Z,98504.09
2022-11-27T08:25:06.338Z,98505.06
2022-11-27T08:27:36.561Z,98498.56
2022-11-27T08:30:05.888Z,98495.50
2022-11-27T08:32:34.190Z,98498.22
2022-11-27T08:35:03.140Z,98501.81
2022-11-27T08:37:32.124Z,98497.72
2022-11-27T08:40:01.197Z,98498.50
2022-11-27T08:42:29.526Z,98494.47
2022-11-27T08:44:57.871Z,98501.38
2022-11-27T08:47:27.382Z,98501.31
2022-11-27T08:49:55.690Z,98499.63
2022-11-27T08:52:24.374Z,98495.34
2022-11-27T08:54:57.296Z,98490.72
2022-11-27T08:57:27.442Z,98487.09
2022-11-27T08:59:55.733Z,98498.84
2022-11-27T09:02:24.184Z,98494.69
2022-11-27T09:04:52.631Z,98503.06
2022-11-27T09:07:21.104Z,98496.00
2022-11-27T09:09:49.417Z,98490.44
2022-11-27T09:12:17.929Z,98497.19
2022-11-27T09:14:46.416Z,98496.06
2022-11-27T09:17:14.780Z,98493.97
2022-11-27T09:19:43.086Z,98491.16
2022-11-27T09:22:11.478Z,98490.63
2022-11-27T09:24:40.190Z,98483.91
2022-11-27T09:27:08.751Z,98484.34
2022-11-27T09:29:37.192Z,98469.31
2022-11-27T09:32:05.742Z,98469.63
2022-11-27T09:34:37.657Z,98462.88
2022-11-27T09:37:06.339Z,98462.09
2022-11-27T09:39:35.139Z,98460.66
2022-11-27T09:42:07.947Z,98459.38
2022-11-27T09:44:48.549Z,98461.47
2022-11-27T09:47:26.903Z,98458.69
2022-11-27T09:50:12.256Z,98448.78
2022-11-27T09:52:44.940Z,98441.88
2022-11-27T09:55:39.181Z,98446.06
2022-11-27T09:58:19.386Z,98455.25
2022-11-27T10:00:50.439Z,98451.44
2022-11-27T10:03:26.306Z,98443.41
2022-11-27T10:06:32.201Z,98428.59
2022-11-27T10:09:28.717Z,98421.84
2022-11-27T10:12:27.401Z,98410.34
2022-11-27T10:15:23.600Z,98415.69
2022-11-27T10:18:02.305Z,98411.63
2022-11-27T10:20:36.478Z,98418.91
2022-11-27T10:23:13.891Z,98405.50
2022-11-27T10:25:49.442Z,98409.56
2022-11-27T10:28:45.474Z,98406.53
2022-11-27T10:31:39.625Z,98410.69
2022-11-27T10:34:21.259Z,98387.09
2022-11-27T10:36:49.719Z,98384.75
2022-11-27T10:39:33.635Z,98378.78
2022-11-27T10:42:37.577Z,98380.88
2022-11-27T10:45:24.404Z,98377.00
2022-11-27T10:47:52.911Z,98376.66
2022-11-27T10:50:21.254Z,98372.09
2022-11-27T10:52:57.798Z,98369.47
2022-11-27T10:55:36.929Z,98359.50
2022-11-27T10:58:27.527Z,98358.41
2022-11-27T11:01:08.919Z,98357.38
2022-11-27T11:03:38.912Z,98352.25
2022-11-27T11:06:30.034Z,98360.84
2022-11-27T11:09:07.157Z,98352.44
2022-11-27T11:11:36.299Z,98348.19
2022-11-27T11:14:04.725Z,98353.13
2022-11-27T11:16:35.844Z,98353.25
2022-11-27T11:19:06.565Z,98342.50
2022-11-27T11:21:45.464Z,98344.88
2022-11-27T11:24:27.872Z,98346.63
2022-11-27T11:26:59.438Z,98332.13
2022-11-27T11:29:42.704Z,98336.91
2022-11-27T11:32:19.544Z,98329.84
2022-11-27T11:34:57.697Z,98316.06
2022-11-27T11:37:33.541Z,98316.72
2022-11-27T11:40:05.204Z,98322.06
2022-11-27T11:43:10.303Z,98318.25
2022-11-27T11:45:45.643Z,98312.06
2022-11-27T11:48:25.265Z,98314.50
2022-11-27T11:51:13.874Z,98311.59
2022-11-27T11:53:59.840Z,98307.16
2022-11-27T11:56:36.690Z,98304.47
2022-11-27T11:59:05.699Z,98306.94
2022-11-27T12:01:46.604Z,98307.56
2022-11-27T12:04:25.697Z,98299.00
2022-11-27T12:07:11.969Z,98302.56
2022-11-27T12:10:09.203Z,98302.91
2022-11-27T12:12:52.990Z,98295.19
2022-11-27T12:15:40.010Z,98307.25
2022-11-27T12:18:38.467Z,98295.66
2022-11-27T12:21:17.548Z,98289.19
2022-11-27T12:24:24.595Z,98291.28
2022-11-27T12:27:36.129Z,98286.00
2022-11-27T12:30:19.368Z,98283.81
2022-11-27T12:33:01.938Z,98284.09
2022-11-27T12:35:35.293Z,98283.31
2022-11-27T12:38:22.368Z,98276.19
2022-11-27T12:41:13.828Z,98279.34
2022-11-27T12:43:50.434Z,98277.28
2022-11-27T12:46:45.056Z,98279.66
2022-11-27T12:49:31.198Z,98277.75
2022-11-27T12:52:14.004Z,98279.97
2022-11-27T12:55:27.708Z,98276.03
2022-11-27T12:58:12.588Z,98276.91
2022-11-27T13:00:42.696Z,98289.69
2022-11-27T13:03:31.233Z,98277.94
2022-11-27T13:06:22.677Z,98277.66
2022-11-27T13:09:05.215Z,98274.56
2022-11-27T13:11:36.715Z,98274.75
2022-11-27T13:14:12.418Z,98275.91
2022-11-27T13:16:46.021Z,98276.72
2022-11-27T13:19:40.294Z,98266.53
2022-11-27T13:22:13.965Z,98264.47
2022-11-27T13:24:42.875Z,98274.09
2022-11-27T13:27:17.394Z,98272.66
2022-11-27T13:30:11.944Z,98262.22
2022-11-27T13:32:51.911Z,98264.69
2022-11-27T13:35:28.265Z,98273.28
2022-11-27T13:38:26.583Z,98270.88
2022-11-27T13:40:58.790Z,98267.09
2022-11-27T13:43:56.381Z,98273.25
2022-11-27T13:46:26.769Z,98270.84
2022-11-27T13:49:04.799Z,98261.66
2022-11-27T13:51:36.187Z,98256.03
2022-11-27T13:54:27.639Z,98256.16
2022-11-27T13:56:57.989Z,98262.50
2022-11-27T13:59:26.418Z,98265.28
2022-11-27T14:01:56.785Z,98258.81
2022-11-27T14:04:27.735Z,98262.75
2022-11-27T14:06:58.596Z,98266.53
2022-11-27T14:09:48.323Z,98265.53
2022-11-27T14:12:32.044Z,98256.41
2022-11-27T14:15:15.986Z,98257.56
2022-11-27T14:17:46.431Z,98257.25
2022-11-27T14:20:23.896Z,98261.56
2022-11-27T14:23:12.164Z,98257.81
2022-11-27T14:25:42.786Z,98257.00
2022-11-27T14:28:21.989Z,98258.19
2022-11-27T14:30:52.266Z,98259.25
2022-11-27T14:33:25.979Z,98257.13
2022-11-27T14:35:59.076Z,98255.38
2022-11-27T14:38:29.136Z,98262.56
2022-11-27T14:41:14.975Z,98254.41
2022-11-27T14:43:44.168Z,98256.78
2022-11-27T14:46:23.754Z,98263.50
2022-11-27T14:48:59.294Z,98263.91
2022-11-27T14:51:31.531Z,98271.13
2022-11-27T14:54:03.096Z,98266.69
2022-11-27T14:56:45.774Z,98263.63
2022-11-27T14:59:18.685Z,98266.22
2022-11-27T15:01:57.890Z,98267.69
2022-11-27T15:04:45.294Z,98255.47
2022-11-27T15:07:28.268Z,98262.97
2022-11-27T15:09:58.119Z,98260.25
2022-11-27T15:12:32.958Z,98262.28
2022-11-27T15:15:08.470Z,98262.16
2022-11-27T15:17:38.746Z,98267.56
2022-11-27T15:20:28.220Z,98274.94
2022-11-27T15:22:57.878Z,98274.28
2022-11-27T15:25:41.100Z,98276.22
2022-11-27T15:28:28.053Z,98276.72
2022-11-27T15:30:57.191Z,98281.50
2022-11-27T15:33:27.426Z,98274.97
2022-11-27T15:36:19.467Z,98279.41
2022-11-27T15:38:48.328Z,98275.63
2022-11-27T15:41:30.157Z,98279.34
2022-11-27T15:43:59.190Z,98273.09
2022-11-27T15:46:32.304Z,98284.19
2022-11-27T15:49:01.846Z,98277.00
2022-11-27T15:51:32.203Z,98284.19
2022-11-27T15:54:00.709Z,98281.81
2022-11-27T15:56:43.527Z,98279.84
2022-11-27T15:59:12.287Z,98285.28
2022-11-27T16:01:41.039Z,98276.44
2022-11-27T16:04:11.874Z,98282.56
2022-11-27T16:06:41.183Z,98272.69
2022-11-27T16:09:09.880Z,98268.69
2022-11-27T16:11:45.537Z,98280.19
2022-11-27T16:14:14.182Z,98271.91
2022-11-27T16:16:47.004Z,98264.03
2022-11-27T16:19:18.129Z,98268.22
2022-11-27T16:21:50.387Z,98263.88
2022-11-27T16:24:20.788Z,98270.63
2022-11-27T16:26:51.235Z,98278.28
2022-11-27T16:29:20.780Z,98279.72
2022-11-27T16:31:58.527Z,98280.84
2022-11-27T16:34:34.372Z,98282.75
2022-11-27T16:37:13.108Z,98286.75
2022-11-27T16:39:45.158Z,98279.88
2022-11-27T16:42:14.883Z,98282.59
2022-11-27T16:44:48.056Z,98279.16
2022-11-27T16:47:17.380Z,98281.81
2022-11-27T16:49:47.676Z,98270.25
2022-11-27T16:52:16.773Z,98272.38
2022-11-27T16:54:45.893Z,98278.28
2022-11-27T16:57:14.666Z,98283.56
2022-11-27T16:59:43.810Z,98283.72
2022-11-27T17:02:12.468Z,98279.84
2022-11-27T17:04:43.028Z,98283.25
2022-11-27T17:07:11.794Z,98287.81
2022-11-27T17:09:42.679Z,98289.94
2022-11-27T17:12:11.435Z,98286.81
2022-11-27T17:14:42.367Z,98279.69
2022-11-27T17:17:14.749Z,98279.16
2022-11-27T17:19:44.594Z,98275.22
2022-11-27T17:22:13.971Z,98274.94
2022-11-27T17:24:42.991Z,98284.91
2022-11-27T17:27:13.017Z,98276.38
2022-11-27T17:29:43.782Z,98280.03
2022-11-27T17:32:14.863Z,98281.00
2022-11-27T17:34:45.679Z,98274.44
2022-11-27T17:37:15.935Z,98275.38
2022-11-27T17:39:44.722Z,98273.44
2022-11-27T17:42:16.140Z,98279.16
2022-11-27T17:44:53.509Z,98272.91
2022-11-27T17:47:24.156Z,98277.66
2022-11-27T17:49:55.473Z,98277.47
2022-11-27T17:52:24.198Z,98276.09
2022-11-27T17:54:52.994Z,98273.28
2022-11-27T17:57:23.729Z,98272.66
2022-11-27T17:59:52.373Z,98275.56
2022-11-27T18:02:21.922Z,98273.34
2022-11-27T18:04:51.009Z,98270.44
2022-11-27T18:07:21.483Z,98265.53
2022-11-27T18:09:57.488Z,98278.88
2022-11-27T18:12:27.252Z,98271.41
2022-11-27T18:15:01.246Z,98264.00
2022-11-27T18:17:31.020Z,98263.00
2022-11-27T18:19:59.860Z,98251.25
2022-11-27T18:22:30.760Z,98257.06
2022-11-27T18:25:00.769Z,98261.84
2022-11-27T18:27:30.454Z,98261.44
2022-11-27T18:30:01.290Z,98253.94
2022-11-27T18:35:16.983Z,98266.00
2022-11-27T18:37:46.372Z,98259.19
2022-11-27T18:40:17.599Z,98265.81
2022-11-27T18:42:46.904Z,98258.41
2022-11-27T18:45:32.358Z,98266.09
2022-11-27T18:48:02.077Z,98265.47
2022-11-27T18:50:34.746Z,98270.28
2022-11-27T18:53:11.315Z,98263.59
2022-11-27T18:55:52.975Z,98251.78
2022-11-27T18:58:25.195Z,98260.69
2022-11-27T19:01:04.681Z,98262.94
2022-11-27T19:03:36.781Z,98261.00
2022-11-27T19:06:11.005Z,98257.03
2022-11-27T19:08:41.268Z,98256.22
2022-11-27T19:11:15.874Z,98256.22
2022-11-27T19:13:52.196Z,98252.94
2022-11-27T19:16:26.269Z,98259.78
2022-11-27T19:18:58.188Z,98256.22
2022-11-27T19:21:29.030Z,98253.63
2022-11-27T19:24:04.631Z,98260.56
2022-11-27T19:26:42.903Z,98254.31
2022-11-27T19:29:19.826Z,98255.00
2022-11-27T19:31:53.640Z,98250.09
2022-11-27T19:34:24.556Z,98254.06
2022-11-27T19:36:58.759Z,98257.72
2022-11-27T19:39:32.091Z,98254.44
2022-11-27T19:42:01.710Z,98257.41
2022-11-27T19:44:36.627Z,98255.06
2022-11-27T19:47:07.635Z,98259.69
2022-11-27T19:49:36.937Z,98259.56
2022-11-27T19:52:10.582Z,98256.44
2022-11-27T19:54:42.962Z,98258.72
2022-11-27T19:57:14.381Z,98260.28
2022-11-27T19:59:44.854Z,98253.72
2022-11-27T20:02:16.158Z,98259.88
2022-11-27T20:04:46.591Z,98253.19
2022-11-27T20:07:17.240Z,98251.94
2022-11-27T20:09:47.998Z,98249.88
2022-11-27T20:12:18.635Z,98249.06
2022-11-27T20:14:49.373Z,98251.09
2022-11-27T20:17:20.709Z,98258.19
2022-11-27T20:19:50.955Z,98260.28
2022-11-27T20:22:22.068Z,98257.47
2022-11-27T20:25:17.845Z,98260.56
2022-11-27T20:27:45.780Z,98258.09
2022-11-27T20:30:15.714Z,98251.25
2022-11-27T20:32:45.586Z,98259.91
2022-11-27T20:35:18.027Z,98257.00
2022-11-27T20:37:49.487Z,98250.28
2022-11-27T20:40:21.013Z,98252.19
2022-11-27T20:42:50.504Z,98255.56
2022-11-27T20:45:20.653Z,98246.50
2022-11-27T20:47:51.382Z,98243.03
2022-11-27T20:50:21.837Z,98243.31
2022-11-27T20:52:51.726Z,98251.94
2022-11-27T20:55:20.692Z,98242.22
2022-11-27T20:57:53.485Z,98237.28
2022-11-27T21:00:25.363Z,98232.97
2022-11-27T21:02:54.710Z,98232.78
2022-11-27T21:05:25.026Z,98245.06
2022-11-27T21:07:57.421Z,98244.78
2022-11-27T21:10:27.805Z,98242.41
2022-11-27T21:12:56.352Z,98240.88
2022-11-27T21:15:24.741Z,98228.66
2022-11-27T21:17:54.206Z,98228.69
2022-11-27T21:20:23.141Z,98231.16
2022-11-27T21:22:52.832Z,98223.47
2022-11-27T21:25:25.314Z,98231.50
2022-11-27T21:27:58.242Z,98227.59
2022-11-27T21:30:28.516Z,98229.13
2022-11-27T21:32:57.285Z,98229.31
2022-11-27T21:35:31.283Z,98233.59
2022-11-27T21:38:01.071Z,98215.09
2022-11-27T21:40:29.519Z,98220.81
2022-11-27T21:42:58.091Z,98223.25
2022-11-27T21:45:26.555Z,98220.03
2022-11-27T21:47:56.233Z,98228.59
2022-11-27T21:50:24.701Z,98224.16
2022-11-27T21:52:54.819Z,98227.38
2022-11-27T21:55:23.719Z,98223.69
2022-11-27T21:57:52.152Z,98230.13
2022-11-27T22:00:20.871Z,98220.94
2022-11-27T22:02:49.379Z,98231.28
2022-11-27T22:05:19.042Z,98223.34
2022-11-27T22:07:47.529Z,98224.06
2022-11-27T22:10:16.092Z,98216.94
2022-11-27T22:12:44.552Z,98224.88
2022-11-27T22:15:13.552Z,98216.94
2022-11-27T22:17:41.985Z,98219.13
2022-11-27T22:20:10.867Z,98217.78
2022-11-27T22:22:39.342Z,98204.25
2022-11-27T22:25:08.111Z,98196.78
2022-11-27T22:27:36.598Z,98197.19
2022-11-27T22:30:06.147Z,98203.44
2022-11-27T22:32:34.633Z,98199.00
2022-11-27T22:35:03.098Z,98197.16
2022-11-27T22:37:31.603Z,98194.09
2022-11-27T22:39:59.972Z,98198.97
2022-11-27T22:42:28.498Z,98198.50
2022-11-27T22:44:56.953Z,98191.09
2022-11-27T22:47:25.360Z,98183.75
2022-11-27T22:49:54.537Z,98197.66
2022-11-27T22:52:23.161Z,98195.97
2022-11-27T22:54:52.141Z,98202.09
2022-11-27T22:57:20.707Z,98189.13
2022-11-27T22:59:49.761Z,98198.13
2022-11-27T23:02:19.764Z,98190.69
2022-11-27T23:04:48.443Z,98183.34
2022-11-27T23:07:22.325Z,98185.44
2022-11-27T23:09:53.239Z,98183.34
2022-11-27T23:12:21.684Z,98185.19
2022-11-27T23:14:50.032Z,98181.59
2022-11-27T23:17:18.497Z,98178.22
2022-11-27T23:19:46.845Z,98179.75
2022-11-27T23:22:15.291Z,98180.94
2022-11-27T23:24:43.964Z,98189.56
2022-11-27T23:27:12.451Z,98176.63
2022-11-27T23:29:40.833Z,98177.44
2022-11-27T23:32:09.294Z,98175.72
2022-11-27T23:34:37.786Z,98175.09
2022-11-27T23:37:06.247Z,98176.84
2022-11-27T23:39:34.723Z,98178.94
2022-11-27T23:42:03.049Z,98164.22
2022-11-27T23:44:32.225Z,98175.22
2022-11-27T23:47:00.679Z,98172.16
2022-11-27T23:49:29.666Z,98168.25
2022-11-27T23:51:58.642Z,98164.41
2022-11-27T23:54:27.054Z,98158.31
2022-11-27T23:56:56.516Z,98161.66
2022-11-27T23:59:24.984Z,98159.03
